Zealand Delilah — PBZI — position and weather

sailwx.info

Track history (hours):
 
Tides and Currents Weather Stations Pressure Air Temp Water Temp Dewpoint Dewpoint Depression Visibility Wind Speed Wind Dir Waves Ship Positions

Zealand Delilah

Last reported at 2018-Jan-22 02:23 UTC. Time now 2018-Jan-22 02:40 UTC.
Position N 51°03' E 002°21'.

Length 135 m; draft 8.9 m.

Type: Cargo ship. MMSI: 245935000.

Date/timePositionNaut miles runAvg speedWind from/ knotsBaromVisibWave heightAir tempDewpointWater temp
2018-Jan-22 02:23N 51°03' E 002°21'0 0.0
2018-Jan-22 01:55N 51°03' E 002°21'0 0.0
2018-Jan-22 01:28N 51°03' E 002°21'0 0.0
2018-Jan-22 00:57N 51°03' E 002°21'0 0.0
2018-Jan-22 00:30N 51°03' E 002°21'0 0.0
2018-Jan-22 00:00N 51°03' E 002°21'0 0.0
2018-Jan-21 23:23N 51°03' E 002°21'0 0.0
2018-Jan-21 22:56N 51°03' E 002°21'0 0.0
2018-Jan-21 22:22N 51°03' E 002°21'0 0.0
2018-Jan-21 21:58N 51°03' E 002°21'0 0.0
2018-Jan-21 21:24N 51°03' E 002°21'0 0.0
2018-Jan-21 20:59N 51°03' E 002°21'0 0.0
2018-Jan-21 20:29N 51°03' E 002°21'0 0.0
2018-Jan-21 19:27N 51°03' E 002°21'0 0.0
2018-Jan-21 19:00N 51°03' E 002°21'0 0.0
2018-Jan-21 18:30N 51°03' E 002°21'0 0.0
2018-Jan-21 18:00N 51°03' E 002°21'0 0.0
2018-Jan-21 17:29N 51°03' E 002°21'0 0.0
2018-Jan-21 16:56N 51°03' E 002°21'0 0.0
2018-Jan-21 16:23N 51°03' E 002°21'0 0.0
2018-Jan-21 15:58N 51°03' E 002°21'0 0.0
2018-Jan-21 15:28N 51°03' E 002°21'0 0.0
2018-Jan-21 14:52N 51°03' E 002°21'0 0.0
2018-Jan-21 14:28N 51°03' E 002°21'0 0.0
2018-Jan-21 13:18N 51°03' E 002°21'0 0.0
2018-Jan-21 12:09N 51°03' E 002°21'0 0.0
2018-Jan-21 12:00N 51°03' E 002°21'0 0.0
2018-Jan-21 11:28N 51°03' E 002°21'0 0.0
2018-Jan-21 10:58N 51°03' E 002°21'0 0.0
2018-Jan-21 10:26N 51°03' E 002°21'1 1.5
2018-Jan-21 09:59N 51°03' E 002°20'0 0.5
2018-Jan-21 09:26N 51°03' E 002°21'1 1.8
2018-Jan-21 09:01N 51°04' E 002°20'5 9.2
2018-Jan-21 08:27N 51°03' E 002°12'4 9.3
2018-Jan-21 07:59N 51°03' E 002°05'5 9.5
2018-Jan-21 07:28N 51°02' E 001°58'4 9.2
2018-Jan-21 07:00N 51°02' E 001°51'2 4.9
2018-Jan-21 06:30N 51°02' E 001°47'4 7.2
2018-Jan-21 06:00N 51°01' E 001°42'4 7.6
2018-Jan-21 05:30N 50°59' E 001°37'4 7.8
2018-Jan-21 05:00N 50°56' E 001°33'59 9.7
2018-Jan-20 22:54N 50°22' E 000°17'511.7
2018-Jan-20 22:27N 50°20' E 000°09'511.3
2018-Jan-20 22:00N 50°19' E 000°01'610.9
2018-Jan-20 21:27N 50°17' W 000°08'75 8.6
2018-Jan-20 12:43N 49°57' W 002°00'1110.1
2018-Jan-20 11:39N 49°55' W 002°17'611.3
2018-Jan-20 11:09N 49°54' W 002°25'211.7
2018-Jan-20 10:57N 49°53' W 002°29'811.7
2018-Jan-20 10:16N 49°51' W 002°41'411.9
2018-Jan-20 09:55N 49°50' W 002°47'511.6
2018-Jan-20 09:28N 49°48' W 002°54'811.6
2018-Jan-20 08:46N 49°43' W 003°05'  
Track history (hours):
 
Tides and Currents Weather Stations Pressure Air Temp Water Temp Dewpoint Dewpoint Depression Visibility Wind Speed Wind Dir Waves Ship Positions

Zealand Delilah

Last reported at 2018-Jan-22 02:23 UTC. Time now 2018-Jan-22 02:40 UTC.
Position N 51°03' E 002°21'.

Length 135 m; draft 8.9 m.

Type: Cargo ship. MMSI: 245935000.

Date/timePositionNaut miles runAvg speedWind from/ knotsBaromVisibWave heightAir tempDewpointWater temp
2018-Jan-22 02:23N 51°03' E 002°21'0 0.0
2018-Jan-22 01:55N 51°03' E 002°21'0 0.0
2018-Jan-22 01:28N 51°03' E 002°21'0 0.0
2018-Jan-22 00:57N 51°03' E 002°21'0 0.0
2018-Jan-22 00:30N 51°03' E 002°21'0 0.0
2018-Jan-22 00:00N 51°03' E 002°21'0 0.0
2018-Jan-21 23:23N 51°03' E 002°21'0 0.0
2018-Jan-21 22:56N 51°03' E 002°21'0 0.0
2018-Jan-21 22:22N 51°03' E 002°21'0 0.0
2018-Jan-21 21:58N 51°03' E 002°21'0 0.0
2018-Jan-21 21:24N 51°03' E 002°21'0 0.0
2018-Jan-21 20:59N 51°03' E 002°21'0 0.0
2018-Jan-21 20:29N 51°03' E 002°21'0 0.0
2018-Jan-21 19:27N 51°03' E 002°21'0 0.0
2018-Jan-21 19:00N 51°03' E 002°21'0 0.0
2018-Jan-21 18:30N 51°03' E 002°21'0 0.0
2018-Jan-21 18:00N 51°03' E 002°21'0 0.0
2018-Jan-21 17:29N 51°03' E 002°21'0 0.0
2018-Jan-21 16:56N 51°03' E 002°21'0 0.0
2018-Jan-21 16:23N 51°03' E 002°21'0 0.0
2018-Jan-21 15:58N 51°03' E 002°21'0 0.0
2018-Jan-21 15:28N 51°03' E 002°21'0 0.0
2018-Jan-21 14:52N 51°03' E 002°21'0 0.0
2018-Jan-21 14:28N 51°03' E 002°21'0 0.0
2018-Jan-21 13:18N 51°03' E 002°21'0 0.0
2018-Jan-21 12:09N 51°03' E 002°21'0 0.0
2018-Jan-21 12:00N 51°03' E 002°21'0 0.0
2018-Jan-21 11:28N 51°03' E 002°21'0 0.0
2018-Jan-21 10:58N 51°03' E 002°21'0 0.0
2018-Jan-21 10:26N 51°03' E 002°21'1 1.5
2018-Jan-21 09:59N 51°03' E 002°20'0 0.5
2018-Jan-21 09:26N 51°03' E 002°21'1 1.8
2018-Jan-21 09:01N 51°04' E 002°20'5 9.2
2018-Jan-21 08:27N 51°03' E 002°12'4 9.3
2018-Jan-21 07:59N 51°03' E 002°05'5 9.5
2018-Jan-21 07:28N 51°02' E 001°58'4 9.2
2018-Jan-21 07:00N 51°02' E 001°51'2 4.9
2018-Jan-21 06:30N 51°02' E 001°47'4 7.2
2018-Jan-21 06:00N 51°01' E 001°42'4 7.6
2018-Jan-21 05:30N 50°59' E 001°37'4 7.8
2018-Jan-21 05:00N 50°56' E 001°33'59 9.7
2018-Jan-20 22:54N 50°22' E 000°17'511.7
2018-Jan-20 22:27N 50°20' E 000°09'511.3
2018-Jan-20 22:00N 50°19' E 000°01'610.9
2018-Jan-20 21:27N 50°17' W 000°08'75 8.6
2018-Jan-20 12:43N 49°57' W 002°00'1110.1
2018-Jan-20 11:39N 49°55' W 002°17'611.3
2018-Jan-20 11:09N 49°54' W 002°25'211.7
2018-Jan-20 10:57N 49°53' W 002°29'811.7
2018-Jan-20 10:16N 49°51' W 002°41'411.9
2018-Jan-20 09:55N 49°50' W 002°47'511.6
2018-Jan-20 09:28N 49°48' W 002°54'811.6
2018-Jan-20 08:46N 49°43' W 003°05'  

Dump ship's entire track history